Portada
METAR-TAF:

METAR-TAF

Aeroports :

Woomera, Austràlia

latitud: 31-08S, longitud: 136-49E, altitud: 165 m

Observació

L'informe es va fer fa 44 minuts, a les 19:30 UTC
Vent 8 kt del Sud/Sud-Est
Temperatura 13°C
Humitat 77%
Pressió 1021 hPa
Visibilitat 10 km o més

METAR: YPWR 131930Z AUTO 15008KT 9999 // NCD 13/09 Q1021 RF00.0/000.0

Hora: 06:44 (20:14 UTC)

Pronòstic

L'informe es va fer fa 4 hores i 20 minuts, a les 15:54 UTC
Pronòstic vàlid del 13 a les 18 UTC al 14 a les 12 UTC
Vent 10 kt del Sud-Est
Visibilitat 10 km o més
sense núvols per sota de 1500 mi sense presència de cumulonimbus.
A partir de les 14 a les 0100 UTC
Vent 12 kt del Oest/Sud-Oest
Visibilitat 10 km o més
sense núvols per sota de 1500 mi sense presència de cumulonimbus.

TAF: YPWR 131554Z 1318/1412 13010KT CAVOK FM140100 24012KT CAVOK

Observacions i pronòstics meteorològics de més de 4000 aeroports (METAR i TAF).

Les estacions disponibles són els punts grocs i vermells al mapa.

Posi el ratolí al punt desitjat per veure el nom de l'estació.

Feu clic per veure les observacions i els pronòstics meteorològics.

Per canviar el mapa: feu clic els botons verds amb una creu de color negre per apropar; al botó verd amb un guió per allunyar la imatge; o en les fletxes verdes per a mapes adjacents.


METAR-TAF: